Akron, Ohio
Current Conditions -  °F | °C
As of 2:54 AM on Friday 21 Nov 2014 (Local Time) from KAKR Reporting Station
Scattered Clouds Scattered Clouds  
Wind Chill: -16°   Ceiling: Unl
Heat Index: -9°   Visibility: 10mi
Dew Point: -13°   Wind: 9mph
Humidity: 77%   Direction: 260°W
Pressure: 30.21"   Gusts: NA
Location:  41.08°N, 81.51°W
Report Text: KAKR 210754Z AUTO 26008KT 10SM SCT060 M09/M13 A3021 RMK AO2 SLP246 T10941128 $
Loading
Personal Weather Stations






























Interactive Weather Map New forecast layout! Learn more

10-Day Weather Forecast

Advertisements
Track Severe Weather on mobile